• Join FlightAware (Why Join?)
  • Login
  • US Flag 
01:01AM EDT


 

Airport Tracker/Info


-or-


 

Live Flight TrackerFlight Track Log ✈ NKS612 ✈ 02-May-2013 ✈ KMSP - KORD

Flight Track Log - Related Links

Times and Time Zones

All times are in EDT time to prevent confusion due to time zone crossing. See the NKS612 flight status page for this flight to view local times or setup timezone preferences in your user account.

Time Position Orientation Groundspeed Altitude Reporting Facility
EDT Latitude Longitude Course Direction KTS MPH feet Rate Location/Type
07:21AM 44.8880 -93.2370 305° West 147 169 1,200  Level FlightAware
07:21AM 44.8890 -93.2450 280° West 151 174 1,600 1,620 Climbing FlightAware
07:21AM 44.8830 -93.2820 257° West 197 227 2,300 1,260 Climbing FlightAware
07:22AM 44.8710 -93.3230 248° West 261 300 2,900 1,440 Climbing FlightAware
07:22AM 44.8550 -93.3380 214° Southwest 282 325 3,400 2,400 Climbing FlightAware
07:22AM 44.8390 -93.3410 188° South 283 326 4,100 3,720 Climbing FlightAware
07:23AM 44.8040 -93.3290 166° South 286 329 5,900 4,020 Climbing FlightAware
07:23AM 44.7850 -93.3210 163° South 288 331 6,800 3,060 Climbing FlightAware
07:23AM 44.7460 -93.3020 161° South 306 352 8,200 2,820 Climbing FlightAware
07:24AM 44.7320 -93.2950 160° South 310 357 8,700 4,020 Climbing FlightAware
07:24AM 44.6740 -93.2680 162° South 285 328 11,900 3,780 Climbing FlightAware
07:25AM 44.6260 -93.2400 157° South 279 321 14,100 2,820 Climbing FlightAware
07:26AM 44.5710 -93.2050 156° South 294 338 15,900 1,800 Climbing FlightAware
07:26AM 44.5210 -93.1680 152° Southeast 330 380 16,700 1,380 Climbing FlightAware
07:27AM 44.4650 -93.1240 151° Southeast 351 404 17,800 2,160 Climbing FlightAware
07:28AM 44.4010 -93.0730 150° Southeast 350 403 19,800 2,400 Climbing FlightAware
07:29AM 44.3450 -93.0290 151° Southeast 352 405 21,200 2,160 Climbing FlightAware
07:29AM 44.2820 -92.9800 151° Southeast 349 402 22,900 2,220 Climbing FlightAware
07:30AM 44.2270 -92.9380 151° Southeast 343 395 24,400 1,920 Climbing FlightAware
07:31AM 44.1700 -92.8940 151° Southeast 350 403 25,500 1,500 Climbing FlightAware
07:31AM 44.1050 -92.8430 151° Southeast 358 412 26,600 1,380 Climbing FlightAware
07:32AM 44.0460 -92.7980 151° Southeast 363 418 27,500 1,200 Climbing FlightAware
07:33AM 43.9860 -92.7520 151° Southeast 373 429 28,200 1,080 Climbing FlightAware
07:33AM 43.9190 -92.7000 151° Southeast 380 437 29,100 1,080 Climbing FlightAware
07:34AM 43.8600 -92.6460 147° Southeast 392 451 29,800 720 Climbing FlightAware
07:35AM 43.7960 -92.5630 137° Southeast 419 482 30,200 720 Climbing FlightAware
07:36AM 43.7490 -92.4780 127° Southeast 434 499 30,900 600 Climbing FlightAware
07:36AM 43.7110 -92.3790 118° Southeast 436 502 31,000 60 Climbing FlightAware
07:37AM 43.6730 -92.2650 115° Southeast 440 506 31,000  Level FlightAware
07:38AM 43.6390 -92.1640 115° Southeast 443 510 31,000  Level FlightAware
07:38AM 43.6000 -92.0460 114° Southeast 442 509 31,000  Level FlightAware
07:39AM 43.5650 -91.9420 115° Southeast 442 509 31,000  Level FlightAware
07:40AM 43.5310 -91.8410 115° Southeast 444 511 31,000  Level FlightAware
07:40AM 43.4920 -91.7270 115° Southeast 449 517 31,000  Level FlightAware
07:41AM 43.4570 -91.6240 115° Southeast 451 519 31,000  Level FlightAware
07:42AM 43.4160 -91.5050 115° Southeast 451 519 31,000  Level FlightAware
07:43AM 43.3810 -91.4000 115° Southeast 455 524 31,000  Level FlightAware
07:43AM 43.3450 -91.2970 116° Southeast 455 524 31,000  Level FlightAware
07:44AM 43.3080 -91.1810 114° Southeast 457 526 31,000 -660 Level FlightAware
07:45AM 43.2900 -91.0680 102° East 453 521 30,100 -1,740 Descending FlightAware
07:45AM 43.2740 -90.9550 101° East 446 513 28,700 -1,980 Descending FlightAware
07:46AM 43.2350 -90.8420 115° Southeast 420 483 27,300 -2,100 Descending FlightAware
07:47AM 43.2000 -90.7490 117° Southeast 419 482 25,800 -1,800 Descending FlightAware
07:47AM 43.1610 -90.6460 117° Southeast 401 461 24,800 -1,320 Descending FlightAware
07:48AM 43.1290 -90.5610 117° Southeast 389 448 24,000 -600 Descending FlightAware
07:49AM 43.0900 -90.4600 118° Southeast 391 450 24,000  Level FlightAware
07:50AM 43.0520 -90.3620 118° Southeast 392 451 24,000  Level FlightAware
07:50AM 43.0190 -90.2750 117° Southeast 393 452 24,000  Level FlightAware
07:51AM 42.9850 -90.1880 118° Southeast 393 452 24,000  Level FlightAware
07:52AM 42.9510 -90.1000 118° Southeast 392 451 24,000  Level FlightAware
07:52AM 42.9120 -89.9990 118° Southeast 395 455 24,000  Level FlightAware
07:53AM 42.8740 -89.9020 118° Southeast 395 455 24,000 -120 Level FlightAware
07:54AM 42.8390 -89.8140 118° Southeast 397 457 23,900 -600 Descending FlightAware
07:54AM 42.8050 -89.7260 118° Southeast 393 452 23,200 -1,020 Descending FlightAware
07:55AM 42.7660 -89.6270 118° Southeast 386 444 22,500 -1,200 Descending FlightAware
07:56AM 42.7320 -89.5420 119° Southeast 382 440 21,500 -1,740 Descending FlightAware
07:57AM 42.6990 -89.4580 118° Southeast 377 434 20,200 -1,860 Descending FlightAware
07:57AM 42.6630 -89.3680 119° Southeast 370 426 18,900 -1,860 Descending FlightAware
07:58AM 42.6310 -89.2870 118° Southeast 365 420 17,600 -1,980 Descending FlightAware
07:59AM 42.5950 -89.1970 118° Southeast 357 411 16,100 -1,920 Descending FlightAware
07:59AM 42.5630 -89.1180 119° Southeast 344 396 14,900 -1,500 Descending FlightAware
08:00AM 42.5390 -89.0400 113° Southeast 328 377 14,100 -1,140 Descending FlightAware
08:01AM 42.5150 -88.9590 112° Southeast 317 365 13,300 -1,080 Descending FlightAware
08:01AM 42.4920 -88.8850 113° Southeast 311 358 12,600 -1,080 Descending FlightAware
08:02AM 42.4680 -88.8060 112° Southeast 304 350 11,800 -1,080 Descending FlightAware
08:03AM 42.4480 -88.7390 112° Southeast 291 335 11,100 -1,020 Descending FlightAware
08:04AM 42.4270 -88.6700 112° Southeast 279 321 10,500 -1,020 Descending FlightAware
08:04AM 42.4080 -88.6070 112° Southeast 285 328 9,800 -1,080 Descending FlightAware
08:05AM 42.3930 -88.5580 112° Southeast 284 327 9,300 -1,020 Descending FlightAware
08:05AM 42.3800 -88.5150 112° Southeast 278 320 8,900 -600 Descending FlightAware
08:06AM 42.3660 -88.4700 113° Southeast 278 320 8,800 -120 Descending FlightAware
08:06AM 42.3530 -88.4260 112° Southeast 277 319 8,800  Level FlightAware
08:07AM 42.3370 -88.3820 116° Southeast 274 315 8,800 -300 Level FlightAware
08:07AM 42.3120 -88.3510 137° Southeast 264 304 8,500 -1,080 Descending FlightAware
08:07AM 42.2970 -88.3470 169° South 261 300 8,100 -1,800 Descending FlightAware
08:08AM 42.2610 -88.3440 176° South 261 300 7,300 -1,320 Descending FlightAware
08:08AM 42.2250 -88.3400 175° South 254 292 6,800 -660 Descending FlightAware
08:09AM 42.1940 -88.3370 176° South 263 303 6,700  Descending FlightAware
08:09AM 42.1580 -88.3340 176° South 254 292 6,800 -240 Climbing FlightAware
08:10AM 42.1310 -88.3310 175° South 231 266 6,500 -900 Descending FlightAware
08:10AM 42.1010 -88.3280 176° South 215 247 6,000 -1,320 Descending FlightAware
08:11AM 42.0700 -88.3240 175° South 214 246 5,200 -1,320 Descending FlightAware
08:11AM 42.0460 -88.3220 176° South 209 241 4,800 -600 Descending FlightAware
08:11AM 42.0200 -88.3190 175° South 177 204 4,700 -120 Descending FlightAware
08:12AM 42.0000 -88.3150 172° South 170 196 4,700  Level FlightAware
08:12AM 41.9910 -88.3030 135° Southeast 179 206 4,700 -180 Level FlightAware
08:13AM 41.9820 -88.2740 113° Southeast 183 211 4,600 -660 Descending FlightAware
08:13AM 41.9740 -88.2450 110° East 184 212 4,100 -1,020 Descending FlightAware
08:14AM 41.9690 -88.2120 102° East 187 215 3,700 -480 Descending FlightAware
08:14AM 41.9680 -88.1810 92° East 191 220 3,700 -120 Level FlightAware
08:14AM 41.9680 -88.1480 90° East 191 220 3,600 -660 Descending FlightAware
08:15AM 41.9680 -88.1180 90° East 186 214 3,100 -1,140 Descending FlightAware
08:15AM 41.9690 -88.0830 88° East 186 214 2,600 -900 Descending FlightAware
08:16AM 41.9690 -88.0330 90° East 170 196 2,000 -900 Descending FlightAware
08:17AM 41.9690 -87.9980 90° East 129 148 1,400 -840 Descending FlightAware
08:17AM 41.9690 -87.9910 90° East 128 147 1,300 -600 Descending FlightAware
08:17AM 41.9690 -87.9690 90° East 128 147 1,000 -720 Descending FlightAware
08:18AM 41.9690 -87.9500 90° East 128 147 700 -540 Descending FlightAware
08:19AM 41.9690 -87.9110 90° East 132 152 400 -360 Descending FlightAware